sensor_id;sensor_type;location;lat;lon;timestamp;P1;durP1;ratioP1;P2;durP2;ratioP2
61038;SDS011;46919;45.816;3.104;2023-06-26T00:00:01;6.63;;;5.13;;
61038;SDS011;46919;45.816;3.104;2023-06-26T00:02:29;5.70;;;5.20;;
61038;SDS011;46919;45.816;3.104;2023-06-26T00:04:57;7.75;;;5.18;;
61038;SDS011;46919;45.816;3.104;2023-06-26T00:07:23;6.40;;;4.90;;
61038;SDS011;46919;45.816;3.104;2023-06-26T00:09:48;5.78;;;5.00;;
61038;SDS011;46919;45.816;3.104;2023-06-26T00:12:14;5.47;;;4.40;;
61038;SDS011;46919;45.816;3.104;2023-06-26T00:14:39;4.88;;;4.47;;
61038;SDS011;46919;45.816;3.104;2023-06-26T00:17:04;5.90;;;5.13;;
61038;SDS011;46919;45.816;3.104;2023-06-26T00:19:30;7.75;;;5.18;;
61038;SDS011;46919;45.816;3.104;2023-06-26T00:21:55;8.60;;;5.47;;
61038;SDS011;46919;45.816;3.104;2023-06-26T00:24:20;7.68;;;5.18;;
61038;SDS011;46919;45.816;3.104;2023-06-26T00:26:46;6.63;;;5.03;;
61038;SDS011;46919;45.816;3.104;2023-06-26T00:29:12;6.00;;;5.40;;
61038;SDS011;46919;45.816;3.104;2023-06-26T00:31:38;9.02;;;5.18;;
61038;SDS011;46919;45.816;3.104;2023-06-26T00:34:05;7.05;;;5.10;;
61038;SDS011;46919;45.816;3.104;2023-06-26T00:36:30;5.70;;;4.95;;
61038;SDS011;46919;45.816;3.104;2023-06-26T00:38:56;6.28;;;4.70;;
61038;SDS011;46919;45.816;3.104;2023-06-26T00:41:21;6.25;;;5.00;;
61038;SDS011;46919;45.816;3.104;2023-06-26T00:43:46;5.22;;;4.72;;
61038;SDS011;46919;45.816;3.104;2023-06-26T00:46:13;6.57;;;5.30;;
61038;SDS011;46919;45.816;3.104;2023-06-26T00:48:39;8.63;;;5.25;;
61038;SDS011;46919;45.816;3.104;2023-06-26T00:51:07;6.15;;;5.05;;
61038;SDS011;46919;45.816;3.104;2023-06-26T00:53:33;6.00;;;5.10;;
61038;SDS011;46919;45.816;3.104;2023-06-26T00:55:59;5.70;;;5.10;;
61038;SDS011;46919;45.816;3.104;2023-06-26T00:58:27;4.88;;;4.35;;
61038;SDS011;46919;45.816;3.104;2023-06-26T01:00:52;6.95;;;5.10;;
61038;SDS011;46919;45.816;3.104;2023-06-26T01:03:19;6.00;;;4.95;;
61038;SDS011;46919;45.816;3.104;2023-06-26T01:05:46;5.53;;;4.95;;
61038;SDS011;46919;45.816;3.104;2023-06-26T01:08:15;6.13;;;5.53;;
61038;SDS011;46919;45.816;3.104;2023-06-26T01:10:41;6.70;;;5.10;;
61038;SDS011;46919;45.816;3.104;2023-06-26T01:13:07;6.40;;;4.75;;
61038;SDS011;46919;45.816;3.104;2023-06-26T01:15:33;5.20;;;4.70;;
61038;SDS011;46919;45.816;3.104;2023-06-26T01:17:58;6.93;;;5.05;;
61038;SDS011;46919;45.816;3.104;2023-06-26T01:20:30;5.40;;;4.88;;
61038;SDS011;46919;45.816;3.104;2023-06-26T01:28:36;5.28;;;4.75;;
61038;SDS011;46919;45.816;3.104;2023-06-26T01:31:06;6.15;;;5.18;;
61038;SDS011;46919;45.816;3.104;2023-06-26T01:33:32;9.80;;;5.18;;
61038;SDS011;46919;45.816;3.104;2023-06-26T01:35:57;5.20;;;4.70;;
61038;SDS011;46919;45.816;3.104;2023-06-26T01:38:23;7.03;;;4.82;;
61038;SDS011;46919;45.816;3.104;2023-06-26T01:40:49;6.57;;;5.47;;
61038;SDS011;46919;45.816;3.104;2023-06-26T01:43:26;7.45;;;5.32;;
61038;SDS011;46919;45.816;3.104;2023-06-26T01:45:58;7.10;;;5.38;;
61038;SDS011;46919;45.816;3.104;2023-06-26T01:48:31;8.70;;;5.70;;
61038;SDS011;46919;45.816;3.104;2023-06-26T01:51:05;8.38;;;5.10;;
61038;SDS011;46919;45.816;3.104;2023-06-26T01:53:36;5.60;;;5.03;;
61038;SDS011;46919;45.816;3.104;2023-06-26T01:56:06;9.05;;;4.90;;
61038;SDS011;46919;45.816;3.104;2023-06-26T01:58:34;9.02;;;5.15;;
61038;SDS011;46919;45.816;3.104;2023-06-26T02:01:01;7.80;;;5.50;;
61038;SDS011;46919;45.816;3.104;2023-06-26T02:03:27;6.28;;;5.05;;
61038;SDS011;46919;45.816;3.104;2023-06-26T02:05:53;5.70;;;5.05;;
61038;SDS011;46919;45.816;3.104;2023-06-26T02:08:18;6.05;;;5.18;;
61038;SDS011;46919;45.816;3.104;2023-06-26T02:10:43;6.57;;;5.05;;
61038;SDS011;46919;45.816;3.104;2023-06-26T02:13:09;5.50;;;5.00;;
61038;SDS011;46919;45.816;3.104;2023-06-26T02:15:34;5.93;;;5.20;;
61038;SDS011;46919;45.816;3.104;2023-06-26T02:17:59;5.50;;;5.00;;
61038;SDS011;46919;45.816;3.104;2023-06-26T02:20:25;6.93;;;4.78;;
61038;SDS011;46919;45.816;3.104;2023-06-26T02:22:50;7.18;;;5.18;;
61038;SDS011;46919;45.816;3.104;2023-06-26T02:25:17;5.90;;;5.20;;
61038;SDS011;46919;45.816;3.104;2023-06-26T02:27:42;7.68;;;5.18;;
61038;SDS011;46919;45.816;3.104;2023-06-26T02:30:08;5.70;;;5.18;;
61038;SDS011;46919;45.816;3.104;2023-06-26T02:32:34;6.93;;;5.10;;
61038;SDS011;46919;45.816;3.104;2023-06-26T02:34:59;6.47;;;5.30;;
61038;SDS011;46919;45.816;3.104;2023-06-26T02:37:24;6.55;;;4.53;;
61038;SDS011;46919;45.816;3.104;2023-06-26T02:39:50;7.35;;;4.88;;
61038;SDS011;46919;45.816;3.104;2023-06-26T02:42:16;6.50;;;5.07;;
61038;SDS011;46919;45.816;3.104;2023-06-26T02:44:41;8.32;;;5.40;;
61038;SDS011;46919;45.816;3.104;2023-06-26T02:47:06;10.25;;;5.20;;
61038;SDS011;46919;45.816;3.104;2023-06-26T02:49:32;7.70;;;5.68;;
61038;SDS011;46919;45.816;3.104;2023-06-26T02:51:57;9.10;;;5.40;;
61038;SDS011;46919;45.816;3.104;2023-06-26T02:54:22;7.13;;;5.30;;
61038;SDS011;46919;45.816;3.104;2023-06-26T02:56:48;8.63;;;5.60;;
61038;SDS011;46919;45.816;3.104;2023-06-26T02:59:13;6.75;;;5.18;;
61038;SDS011;46919;45.816;3.104;2023-06-26T03:01:39;5.93;;;5.13;;
61038;SDS011;46919;45.816;3.104;2023-06-26T03:04:04;6.20;;;5.53;;
61038;SDS011;46919;45.816;3.104;2023-06-26T03:06:30;7.28;;;6.10;;
61038;SDS011;46919;45.816;3.104;2023-06-26T03:08:55;8.30;;;5.60;;
61038;SDS011;46919;45.816;3.104;2023-06-26T03:11:20;6.65;;;5.55;;
61038;SDS011;46919;45.816;3.104;2023-06-26T03:13:46;6.30;;;5.70;;
61038;SDS011;46919;45.816;3.104;2023-06-26T03:16:12;7.50;;;5.85;;
61038;SDS011;46919;45.816;3.104;2023-06-26T03:18:37;6.93;;;6.15;;
61038;SDS011;46919;45.816;3.104;2023-06-26T03:21:03;8.52;;;5.93;;
61038;SDS011;46919;45.816;3.104;2023-06-26T03:23:28;7.28;;;6.05;;
61038;SDS011;46919;45.816;3.104;2023-06-26T03:25:53;6.40;;;5.80;;
61038;SDS011;46919;45.816;3.104;2023-06-26T03:28:19;8.63;;;5.97;;
61038;SDS011;46919;45.816;3.104;2023-06-26T03:30:44;7.55;;;6.13;;
61038;SDS011;46919;45.816;3.104;2023-06-26T03:33:10;8.57;;;6.35;;
61038;SDS011;46919;45.816;3.104;2023-06-26T03:35:35;8.25;;;6.03;;
61038;SDS011;46919;45.816;3.104;2023-06-26T03:38:01;8.18;;;6.18;;
61038;SDS011;46919;45.816;3.104;2023-06-26T03:40:28;8.80;;;6.32;;
61038;SDS011;46919;45.816;3.104;2023-06-26T03:42:53;8.52;;;6.05;;
61038;SDS011;46919;45.816;3.104;2023-06-26T03:45:19;7.15;;;6.15;;
61038;SDS011;46919;45.816;3.104;2023-06-26T03:47:45;6.80;;;5.80;;
61038;SDS011;46919;45.816;3.104;2023-06-26T03:50:13;8.68;;;5.93;;
61038;SDS011;46919;45.816;3.104;2023-06-26T03:52:39;7.78;;;5.90;;
61038;SDS011;46919;45.816;3.104;2023-06-26T03:55:05;8.25;;;6.03;;
61038;SDS011;46919;45.816;3.104;2023-06-26T03:57:30;6.97;;;6.28;;
61038;SDS011;46919;45.816;3.104;2023-06-26T03:59:56;6.78;;;5.88;;
61038;SDS011;46919;45.816;3.104;2023-06-26T04:02:21;8.32;;;6.68;;
61038;SDS011;46919;45.816;3.104;2023-06-26T04:05:01;8.10;;;6.35;;
61038;SDS011;46919;45.816;3.104;2023-06-26T04:07:27;8.70;;;6.68;;
61038;SDS011;46919;45.816;3.104;2023-06-26T04:09:52;7.32;;;6.03;;
61038;SDS011;46919;45.816;3.104;2023-06-26T04:12:17;9.23;;;6.07;;
61038;SDS011;46919;45.816;3.104;2023-06-26T04:14:43;7.18;;;5.97;;
61038;SDS011;46919;45.816;3.104;2023-06-26T04:17:08;11.48;;;6.40;;
61038;SDS011;46919;45.816;3.104;2023-06-26T04:19:34;7.50;;;6.00;;
61038;SDS011;46919;45.816;3.104;2023-06-26T04:22:01;8.15;;;6.15;;
61038;SDS011;46919;45.816;3.104;2023-06-26T04:24:26;7.25;;;6.00;;
61038;SDS011;46919;45.816;3.104;2023-06-26T04:26:51;10.05;;;6.25;;
61038;SDS011;46919;45.816;3.104;2023-06-26T04:29:17;8.10;;;5.80;;
61038;SDS011;46919;45.816;3.104;2023-06-26T04:31:42;8.35;;;6.07;;
61038;SDS011;46919;45.816;3.104;2023-06-26T04:34:12;9.55;;;6.22;;
61038;SDS011;46919;45.816;3.104;2023-06-26T04:36:38;8.07;;;5.78;;
61038;SDS011;46919;45.816;3.104;2023-06-26T04:39:04;9.25;;;6.05;;
61038;SDS011;46919;45.816;3.104;2023-06-26T04:41:29;7.15;;;5.97;;
61038;SDS011;46919;45.816;3.104;2023-06-26T04:43:55;7.35;;;6.20;;
61038;SDS011;46919;45.816;3.104;2023-06-26T04:46:20;7.88;;;5.90;;
61038;SDS011;46919;45.816;3.104;2023-06-26T04:48:45;7.97;;;5.88;;
61038;SDS011;46919;45.816;3.104;2023-06-26T04:51:11;7.85;;;6.13;;
61038;SDS011;46919;45.816;3.104;2023-06-26T04:53:37;7.47;;;6.65;;
61038;SDS011;46919;45.816;3.104;2023-06-26T04:56:02;9.05;;;6.90;;
61038;SDS011;46919;45.816;3.104;2023-06-26T04:58:28;7.60;;;5.95;;
61038;SDS011;46919;45.816;3.104;2023-06-26T05:00:54;8.10;;;6.22;;
61038;SDS011;46919;45.816;3.104;2023-06-26T05:03:19;7.20;;;6.50;;
61038;SDS011;46919;45.816;3.104;2023-06-26T05:05:45;8.07;;;6.38;;
61038;SDS011;46919;45.816;3.104;2023-06-26T05:08:32;8.20;;;5.82;;
61038;SDS011;46919;45.816;3.104;2023-06-26T05:10:56;7.97;;;6.53;;
61038;SDS011;46919;45.816;3.104;2023-06-26T05:13:23;7.93;;;6.53;;
61038;SDS011;46919;45.816;3.104;2023-06-26T05:15:49;8.98;;;6.38;;
61038;SDS011;46919;45.816;3.104;2023-06-26T05:18:15;9.23;;;6.80;;
61038;SDS011;46919;45.816;3.104;2023-06-26T05:20:40;10.98;;;6.85;;
61038;SDS011;46919;45.816;3.104;2023-06-26T05:23:06;10.27;;;6.78;;
61038;SDS011;46919;45.816;3.104;2023-06-26T05:25:32;11.43;;;6.78;;
61038;SDS011;46919;45.816;3.104;2023-06-26T05:27:59;11.88;;;7.00;;
61038;SDS011;46919;45.816;3.104;2023-06-26T05:30:25;10.25;;;6.90;;
61038;SDS011;46919;45.816;3.104;2023-06-26T05:32:52;9.68;;;6.22;;
61038;SDS011;46919;45.816;3.104;2023-06-26T05:35:20;11.18;;;6.20;;
61038;SDS011;46919;45.816;3.104;2023-06-26T05:37:48;9.27;;;7.03;;
61038;SDS011;46919;45.816;3.104;2023-06-26T05:40:15;9.80;;;6.90;;
61038;SDS011;46919;45.816;3.104;2023-06-26T05:42:44;11.77;;;7.22;;
61038;SDS011;46919;45.816;3.104;2023-06-26T05:45:10;7.68;;;6.60;;
61038;SDS011;46919;45.816;3.104;2023-06-26T05:47:36;11.10;;;7.00;;
61038;SDS011;46919;45.816;3.104;2023-06-26T05:50:01;12.40;;;7.40;;
61038;SDS011;46919;45.816;3.104;2023-06-26T05:52:28;8.95;;;7.10;;
61038;SDS011;46919;45.816;3.104;2023-06-26T05:54:54;20.33;;;7.45;;
61038;SDS011;46919;45.816;3.104;2023-06-26T05:57:23;9.57;;;7.82;;
61038;SDS011;46919;45.816;3.104;2023-06-26T05:59:50;13.85;;;7.38;;
61038;SDS011;46919;45.816;3.104;2023-06-26T06:02:16;10.75;;;7.43;;
61038;SDS011;46919;45.816;3.104;2023-06-26T06:04:41;10.77;;;7.35;;
61038;SDS011;46919;45.816;3.104;2023-06-26T06:07:07;9.90;;;7.70;;
61038;SDS011;46919;45.816;3.104;2023-06-26T06:09:32;11.02;;;7.20;;
61038;SDS011;46919;45.816;3.104;2023-06-26T06:11:58;9.82;;;7.68;;
61038;SDS011;46919;45.816;3.104;2023-06-26T06:14:24;10.55;;;7.32;;
61038;SDS011;46919;45.816;3.104;2023-06-26T06:16:50;10.70;;;7.28;;
61038;SDS011;46919;45.816;3.104;2023-06-26T06:19:15;12.63;;;7.07;;
61038;SDS011;46919;45.816;3.104;2023-06-26T06:21:41;10.05;;;7.88;;
61038;SDS011;46919;45.816;3.104;2023-06-26T06:24:06;9.57;;;6.63;;
61038;SDS011;46919;45.816;3.104;2023-06-26T06:26:32;10.13;;;7.47;;
61038;SDS011;46919;45.816;3.104;2023-06-26T06:28:58;14.63;;;7.50;;
61038;SDS011;46919;45.816;3.104;2023-06-26T06:31:23;10.95;;;7.22;;
61038;SDS011;46919;45.816;3.104;2023-06-26T06:33:48;10.50;;;6.20;;
61038;SDS011;46919;45.816;3.104;2023-06-26T06:36:14;10.75;;;6.78;;
61038;SDS011;46919;45.816;3.104;2023-06-26T06:38:42;9.23;;;6.85;;
61038;SDS011;46919;45.816;3.104;2023-06-26T06:41:08;13.48;;;6.45;;
61038;SDS011;46919;45.816;3.104;2023-06-26T06:43:34;9.27;;;6.43;;
61038;SDS011;46919;45.816;3.104;2023-06-26T06:45:59;8.35;;;6.05;;
61038;SDS011;46919;45.816;3.104;2023-06-26T06:48:25;12.85;;;6.90;;
61038;SDS011;46919;45.816;3.104;2023-06-26T06:50:50;10.75;;;6.32;;
61038;SDS011;46919;45.816;3.104;2023-06-26T06:53:15;11.45;;;6.22;;
61038;SDS011;46919;45.816;3.104;2023-06-26T06:55:41;11.10;;;6.32;;
61038;SDS011;46919;45.816;3.104;2023-06-26T06:58:06;11.65;;;6.07;;
61038;SDS011;46919;45.816;3.104;2023-06-26T07:00:31;11.70;;;6.28;;
61038;SDS011;46919;45.816;3.104;2023-06-26T07:02:57;11.77;;;6.55;;
61038;SDS011;46919;45.816;3.104;2023-06-26T07:05:22;7.25;;;5.90;;
61038;SDS011;46919;45.816;3.104;2023-06-26T07:07:48;9.60;;;5.45;;
61038;SDS011;46919;45.816;3.104;2023-06-26T07:10:13;9.52;;;5.57;;
61038;SDS011;46919;45.816;3.104;2023-06-26T07:12:39;8.13;;;4.80;;
61038;SDS011;46919;45.816;3.104;2023-06-26T07:15:05;5.55;;;4.32;;
61038;SDS011;46919;45.816;3.104;2023-06-26T07:17:31;9.43;;;4.70;;
61038;SDS011;46919;45.816;3.104;2023-06-26T07:19:57;11.40;;;5.10;;
61038;SDS011;46919;45.816;3.104;2023-06-26T07:22:23;9.68;;;4.32;;
61038;SDS011;46919;45.816;3.104;2023-06-26T07:24:49;8.77;;;4.28;;
61038;SDS011;46919;45.816;3.104;2023-06-26T07:27:15;8.98;;;4.35;;
61038;SDS011;46919;45.816;3.104;2023-06-26T07:29:41;8.13;;;4.40;;
61038;SDS011;46919;45.816;3.104;2023-06-26T07:32:06;7.38;;;4.53;;
61038;SDS011;46919;45.816;3.104;2023-06-26T07:34:32;8.45;;;4.80;;
61038;SDS011;46919;45.816;3.104;2023-06-26T07:36:57;5.28;;;3.85;;
61038;SDS011;46919;45.816;3.104;2023-06-26T07:39:23;6.57;;;4.40;;
61038;SDS011;46919;45.816;3.104;2023-06-26T07:41:48;7.00;;;4.55;;
61038;SDS011;46919;45.816;3.104;2023-06-26T07:44:14;7.07;;;3.85;;
61038;SDS011;46919;45.816;3.104;2023-06-26T07:46:39;7.45;;;4.35;;
61038;SDS011;46919;45.816;3.104;2023-06-26T07:49:04;6.72;;;4.10;;
61038;SDS011;46919;45.816;3.104;2023-06-26T07:51:30;5.72;;;4.20;;
61038;SDS011;46919;45.816;3.104;2023-06-26T07:53:55;8.40;;;4.28;;
61038;SDS011;46919;45.816;3.104;2023-06-26T07:56:20;8.77;;;4.22;;
61038;SDS011;46919;45.816;3.104;2023-06-26T07:58:46;7.22;;;3.78;;
61038;SDS011;46919;45.816;3.104;2023-06-26T08:01:11;5.53;;;4.00;;
61038;SDS011;46919;45.816;3.104;2023-06-26T08:03:37;6.43;;;3.90;;
61038;SDS011;46919;45.816;3.104;2023-06-26T08:06:02;4.85;;;3.67;;
61038;SDS011;46919;45.816;3.104;2023-06-26T08:08:28;8.90;;;4.38;;
61038;SDS011;46919;45.816;3.104;2023-06-26T08:10:54;5.28;;;3.63;;
61038;SDS011;46919;45.816;3.104;2023-06-26T08:13:19;10.57;;;3.70;;
61038;SDS011;46919;45.816;3.104;2023-06-26T08:15:44;5.55;;;3.47;;
61038;SDS011;46919;45.816;3.104;2023-06-26T08:18:10;7.85;;;3.92;;
61038;SDS011;46919;45.816;3.104;2023-06-26T08:20:36;6.22;;;3.90;;
61038;SDS011;46919;45.816;3.104;2023-06-26T08:23:03;6.38;;;3.63;;
61038;SDS011;46919;45.816;3.104;2023-06-26T08:25:29;6.05;;;3.88;;
61038;SDS011;46919;45.816;3.104;2023-06-26T08:27:54;5.82;;;3.97;;
61038;SDS011;46919;45.816;3.104;2023-06-26T08:30:20;6.53;;;4.53;;
61038;SDS011;46919;45.816;3.104;2023-06-26T08:32:46;5.38;;;3.88;;
61038;SDS011;46919;45.816;3.104;2023-06-26T08:35:11;5.82;;;3.75;;
61038;SDS011;46919;45.816;3.104;2023-06-26T08:37:37;8.88;;;3.83;;
61038;SDS011;46919;45.816;3.104;2023-06-26T08:40:03;4.65;;;3.67;;
61038;SDS011;46919;45.816;3.104;2023-06-26T08:42:29;6.82;;;3.95;;
61038;SDS011;46919;45.816;3.104;2023-06-26T08:44:54;4.95;;;3.25;;
61038;SDS011;46919;45.816;3.104;2023-06-26T08:47:20;5.85;;;3.90;;
61038;SDS011;46919;45.816;3.104;2023-06-26T08:49:47;5.53;;;3.45;;
61038;SDS011;46919;45.816;3.104;2023-06-26T08:52:23;8.38;;;3.92;;
61038;SDS011;46919;45.816;3.104;2023-06-26T08:54:57;5.25;;;3.70;;
61038;SDS011;46919;45.816;3.104;2023-06-26T08:57:24;5.50;;;3.90;;
61038;SDS011;46919;45.816;3.104;2023-06-26T08:59:51;7.28;;;4.18;;
61038;SDS011;46919;45.816;3.104;2023-06-26T09:02:17;7.07;;;3.42;;
61038;SDS011;46919;45.816;3.104;2023-06-26T09:04:42;5.75;;;3.80;;
61038;SDS011;46919;45.816;3.104;2023-06-26T09:07:08;4.53;;;3.38;;
61038;SDS011;46919;45.816;3.104;2023-06-26T09:09:34;6.30;;;3.83;;
61038;SDS011;46919;45.816;3.104;2023-06-26T09:12:01;6.25;;;3.30;;
61038;SDS011;46919;45.816;3.104;2023-06-26T09:14:28;5.00;;;3.45;;
61038;SDS011;46919;45.816;3.104;2023-06-26T09:16:54;5.82;;;3.72;;
61038;SDS011;46919;45.816;3.104;2023-06-26T09:19:20;6.18;;;3.53;;
61038;SDS011;46919;45.816;3.104;2023-06-26T09:21:45;4.80;;;3.60;;
61038;SDS011;46919;45.816;3.104;2023-06-26T09:24:14;6.75;;;3.63;;
61038;SDS011;46919;45.816;3.104;2023-06-26T09:26:40;4.97;;;3.97;;
61038;SDS011;46919;45.816;3.104;2023-06-26T09:29:05;4.75;;;3.72;;
61038;SDS011;46919;45.816;3.104;2023-06-26T09:31:36;7.50;;;4.25;;
61038;SDS011;46919;45.816;3.104;2023-06-26T09:34:02;5.50;;;3.50;;
61038;SDS011;46919;45.816;3.104;2023-06-26T09:36:29;6.28;;;3.72;;
61038;SDS011;46919;45.816;3.104;2023-06-26T09:39:05;7.75;;;4.00;;
61038;SDS011;46919;45.816;3.104;2023-06-26T09:44:03;8.40;;;4.40;;
61038;SDS011;46919;45.816;3.104;2023-06-26T09:46:30;6.40;;;3.80;;
61038;SDS011;46919;45.816;3.104;2023-06-26T09:49:14;7.78;;;4.15;;
61038;SDS011;46919;45.816;3.104;2023-06-26T09:51:40;4.78;;;3.90;;
61038;SDS011;46919;45.816;3.104;2023-06-26T09:54:07;7.15;;;3.88;;
61038;SDS011;46919;45.816;3.104;2023-06-26T09:56:33;5.70;;;4.38;;
61038;SDS011;46919;45.816;3.104;2023-06-26T09:59:00;7.43;;;4.43;;
61038;SDS011;46919;45.816;3.104;2023-06-26T10:01:28;5.28;;;3.80;;
61038;SDS011;46919;45.816;3.104;2023-06-26T10:03:54;8.82;;;4.75;;
61038;SDS011;46919;45.816;3.104;2023-06-26T10:06:31;8.20;;;4.13;;
61038;SDS011;46919;45.816;3.104;2023-06-26T10:09:00;6.28;;;3.83;;
61038;SDS011;46919;45.816;3.104;2023-06-26T10:11:34;4.72;;;4.20;;
61038;SDS011;46919;45.816;3.104;2023-06-26T10:14:09;6.15;;;4.70;;
61038;SDS011;46919;45.816;3.104;2023-06-26T10:16:36;5.20;;;4.20;;
61038;SDS011;46919;45.816;3.104;2023-06-26T10:19:05;5.95;;;4.10;;
61038;SDS011;46919;45.816;3.104;2023-06-26T10:21:33;6.00;;;4.22;;
61038;SDS011;46919;45.816;3.104;2023-06-26T10:23:59;8.13;;;4.60;;
61038;SDS011;46919;45.816;3.104;2023-06-26T10:26:28;8.18;;;6.03;;
61038;SDS011;46919;45.816;3.104;2023-06-26T10:28:54;9.02;;;5.15;;
61038;SDS011;46919;45.816;3.104;2023-06-26T10:31:22;8.10;;;5.65;;
61038;SDS011;46919;45.816;3.104;2023-06-26T10:33:51;7.50;;;5.05;;
61038;SDS011;46919;45.816;3.104;2023-06-26T10:36:18;6.13;;;5.30;;
61038;SDS011;46919;45.816;3.104;2023-06-26T10:38:52;5.90;;;4.82;;
61038;SDS011;46919;45.816;3.104;2023-06-26T10:41:21;10.35;;;5.60;;
61038;SDS011;46919;45.816;3.104;2023-06-26T10:44:30;6.50;;;5.15;;
61038;SDS011;46919;45.816;3.104;2023-06-26T10:46:53;10.05;;;5.50;;
61038;SDS011;46919;45.816;3.104;2023-06-26T10:49:19;6.43;;;5.55;;
61038;SDS011;46919;45.816;3.104;2023-06-26T10:51:49;9.23;;;5.65;;
61038;SDS011;46919;45.816;3.104;2023-06-26T10:54:16;6.00;;;4.93;;
61038;SDS011;46919;45.816;3.104;2023-06-26T10:56:47;6.28;;;4.38;;
61038;SDS011;46919;45.816;3.104;2023-06-26T10:59:16;9.38;;;4.47;;
61038;SDS011;46919;45.816;3.104;2023-06-26T11:01:43;5.65;;;4.38;;
61038;SDS011;46919;45.816;3.104;2023-06-26T11:04:10;7.18;;;5.05;;
61038;SDS011;46919;45.816;3.104;2023-06-26T11:06:36;6.90;;;5.07;;
61038;SDS011;46919;45.816;3.104;2023-06-26T11:09:07;5.78;;;5.05;;
61038;SDS011;46919;45.816;3.104;2023-06-26T11:14:16;6.45;;;4.60;;
61038;SDS011;46919;45.816;3.104;2023-06-26T11:16:42;6.30;;;4.75;;
61038;SDS011;46919;45.816;3.104;2023-06-26T11:19:08;7.93;;;4.55;;
61038;SDS011;46919;45.816;3.104;2023-06-26T11:21:34;6.40;;;5.20;;
61038;SDS011;46919;45.816;3.104;2023-06-26T11:24:02;6.97;;;4.82;;
61038;SDS011;46919;45.816;3.104;2023-06-26T11:26:29;5.75;;;4.72;;
61038;SDS011;46919;45.816;3.104;2023-06-26T11:28:54;6.68;;;5.20;;
61038;SDS011;46919;45.816;3.104;2023-06-26T11:33:49;5.30;;;4.80;;
61038;SDS011;46919;45.816;3.104;2023-06-26T11:36:15;6.35;;;4.88;;
61038;SDS011;46919;45.816;3.104;2023-06-26T11:38:40;6.45;;;4.75;;
61038;SDS011;46919;45.816;3.104;2023-06-26T11:41:05;5.80;;;4.65;;
61038;SDS011;46919;45.816;3.104;2023-06-26T11:43:33;8.75;;;5.45;;
61038;SDS011;46919;45.816;3.104;2023-06-26T11:45:59;8.38;;;5.38;;
61038;SDS011;46919;45.816;3.104;2023-06-26T11:48:25;8.63;;;6.32;;
61038;SDS011;46919;45.816;3.104;2023-06-26T11:50:50;8.38;;;5.82;;
61038;SDS011;46919;45.816;3.104;2023-06-26T11:53:16;6.82;;;5.18;;
61038;SDS011;46919;45.816;3.104;2023-06-26T11:55:42;8.23;;;4.55;;
61038;SDS011;46919;45.816;3.104;2023-06-26T11:58:08;8.07;;;4.88;;
61038;SDS011;46919;45.816;3.104;2023-06-26T12:00:33;7.75;;;5.20;;
61038;SDS011;46919;45.816;3.104;2023-06-26T12:02:58;7.35;;;5.40;;
61038;SDS011;46919;45.816;3.104;2023-06-26T12:05:24;7.80;;;4.97;;
61038;SDS011;46919;45.816;3.104;2023-06-26T12:07:49;6.68;;;4.85;;
61038;SDS011;46919;45.816;3.104;2023-06-26T12:10:16;5.90;;;5.00;;
61038;SDS011;46919;45.816;3.104;2023-06-26T12:12:43;6.55;;;5.55;;
61038;SDS011;46919;45.816;3.104;2023-06-26T12:15:12;8.60;;;5.63;;
61038;SDS011;46919;45.816;3.104;2023-06-26T12:17:39;9.70;;;5.38;;
61038;SDS011;46919;45.816;3.104;2023-06-26T12:20:16;8.05;;;5.50;;
61038;SDS011;46919;45.816;3.104;2023-06-26T12:22:45;6.78;;;5.18;;
61038;SDS011;46919;45.816;3.104;2023-06-26T12:25:12;7.05;;;5.55;;
61038;SDS011;46919;45.816;3.104;2023-06-26T12:27:38;7.00;;;5.50;;
61038;SDS011;46919;45.816;3.104;2023-06-26T12:30:03;7.28;;;5.22;;
61038;SDS011;46919;45.816;3.104;2023-06-26T12:32:30;6.63;;;5.28;;
61038;SDS011;46919;45.816;3.104;2023-06-26T12:34:56;8.77;;;5.57;;
61038;SDS011;46919;45.816;3.104;2023-06-26T12:37:22;7.15;;;5.65;;
61038;SDS011;46919;45.816;3.104;2023-06-26T12:39:55;5.93;;;5.13;;
61038;SDS011;46919;45.816;3.104;2023-06-26T12:42:22;7.43;;;5.32;;
61038;SDS011;46919;45.816;3.104;2023-06-26T12:44:51;7.05;;;5.35;;
61038;SDS011;46919;45.816;3.104;2023-06-26T12:47:19;7.10;;;5.72;;
61038;SDS011;46919;45.816;3.104;2023-06-26T12:49:52;8.18;;;6.25;;
61038;SDS011;46919;45.816;3.104;2023-06-26T12:52:18;9.07;;;6.60;;
61038;SDS011;46919;45.816;3.104;2023-06-26T12:54:44;8.98;;;6.53;;
61038;SDS011;46919;45.816;3.104;2023-06-26T12:57:12;7.53;;;6.63;;
61038;SDS011;46919;45.816;3.104;2023-06-26T12:59:39;8.93;;;6.95;;
61038;SDS011;46919;45.816;3.104;2023-06-26T13:02:05;9.30;;;7.05;;
61038;SDS011;46919;45.816;3.104;2023-06-26T13:04:31;7.72;;;6.93;;
61038;SDS011;46919;45.816;3.104;2023-06-26T13:06:56;8.60;;;7.35;;
61038;SDS011;46919;45.816;3.104;2023-06-26T13:09:25;8.90;;;7.20;;
61038;SDS011;46919;45.816;3.104;2023-06-26T13:11:51;8.63;;;7.22;;
61038;SDS011;46919;45.816;3.104;2023-06-26T13:14:17;9.30;;;8.05;;
61038;SDS011;46919;45.816;3.104;2023-06-26T13:16:42;8.55;;;7.50;;
61038;SDS011;46919;45.816;3.104;2023-06-26T13:19:08;8.23;;;7.35;;
61038;SDS011;46919;45.816;3.104;2023-06-26T13:21:34;8.48;;;7.18;;
61038;SDS011;46919;45.816;3.104;2023-06-26T13:24:00;9.60;;;7.90;;
61038;SDS011;46919;45.816;3.104;2023-06-26T13:26:26;11.23;;;7.97;;
61038;SDS011;46919;45.816;3.104;2023-06-26T13:28:53;9.20;;;7.22;;
61038;SDS011;46919;45.816;3.104;2023-06-26T13:31:19;9.00;;;8.00;;
61038;SDS011;46919;45.816;3.104;2023-06-26T13:33:44;9.32;;;7.70;;
61038;SDS011;46919;45.816;3.104;2023-06-26T13:36:13;8.52;;;7.72;;
61038;SDS011;46919;45.816;3.104;2023-06-26T13:38:39;8.98;;;7.70;;
61038;SDS011;46919;45.816;3.104;2023-06-26T13:41:05;12.30;;;7.70;;
61038;SDS011;46919;45.816;3.104;2023-06-26T13:43:30;12.18;;;7.65;;
61038;SDS011;46919;45.816;3.104;2023-06-26T13:45:55;10.23;;;8.18;;
61038;SDS011;46919;45.816;3.104;2023-06-26T13:48:21;9.18;;;8.27;;
61038;SDS011;46919;45.816;3.104;2023-06-26T13:50:49;9.75;;;8.73;;
61038;SDS011;46919;45.816;3.104;2023-06-26T13:53:15;11.82;;;8.43;;
61038;SDS011;46919;45.816;3.104;2023-06-26T13:55:41;9.77;;;8.65;;
61038;SDS011;46919;45.816;3.104;2023-06-26T13:58:09;9.30;;;8.35;;
61038;SDS011;46919;45.816;3.104;2023-06-26T14:00:36;12.27;;;9.23;;
61038;SDS011;46919;45.816;3.104;2023-06-26T14:03:02;9.73;;;8.73;;
61038;SDS011;46919;45.816;3.104;2023-06-26T14:05:32;9.95;;;9.05;;
61038;SDS011;46919;45.816;3.104;2023-06-26T14:07:58;9.88;;;8.98;;
61038;SDS011;46919;45.816;3.104;2023-06-26T14:10:23;9.45;;;8.55;;
61038;SDS011;46919;45.816;3.104;2023-06-26T14:12:49;11.18;;;9.45;;
61038;SDS011;46919;45.816;3.104;2023-06-26T14:15:15;10.02;;;9.02;;
61038;SDS011;46919;45.816;3.104;2023-06-26T14:17:40;11.05;;;9.60;;
61038;SDS011;46919;45.816;3.104;2023-06-26T14:20:06;10.80;;;9.75;;
61038;SDS011;46919;45.816;3.104;2023-06-26T14:22:38;10.33;;;9.27;;
61038;SDS011;46919;45.816;3.104;2023-06-26T14:25:04;10.95;;;9.85;;
61038;SDS011;46919;45.816;3.104;2023-06-26T14:27:29;13.80;;;9.50;;
61038;SDS011;46919;45.816;3.104;2023-06-26T14:29:55;11.13;;;10.02;;
61038;SDS011;46919;45.816;3.104;2023-06-26T14:32:20;11.05;;;9.95;;
61038;SDS011;46919;45.816;3.104;2023-06-26T14:34:46;12.73;;;10.30;;
61038;SDS011;46919;45.816;3.104;2023-06-26T14:37:11;11.30;;;10.02;;
61038;SDS011;46919;45.816;3.104;2023-06-26T14:39:36;11.00;;;9.93;;
61038;SDS011;46919;45.816;3.104;2023-06-26T14:42:03;10.40;;;9.25;;
61038;SDS011;46919;45.816;3.104;2023-06-26T14:44:29;12.73;;;10.05;;
61038;SDS011;46919;45.816;3.104;2023-06-26T14:46:55;11.75;;;9.50;;
61038;SDS011;46919;45.816;3.104;2023-06-26T14:49:20;11.70;;;9.07;;
61038;SDS011;46919;45.816;3.104;2023-06-26T14:51:46;11.52;;;10.02;;
61038;SDS011;46919;45.816;3.104;2023-06-26T14:54:11;10.57;;;9.55;;